createdAt,value
2022-10-09T00:01:09.862Z,12.77
2022-10-09T00:03:39.021Z,12.70
2022-10-09T00:06:07.088Z,12.69
2022-10-09T00:08:41.093Z,12.74
2022-10-09T00:11:09.009Z,12.67
2022-10-09T00:13:36.426Z,12.67
2022-10-09T00:16:07.910Z,12.69
2022-10-09T00:18:35.128Z,12.69
2022-10-09T00:21:02.626Z,12.63
2022-10-09T00:23:29.995Z,12.63
2022-10-09T00:25:58.841Z,12.56
2022-10-09T00:28:27.970Z,12.62
2022-10-09T00:30:55.152Z,12.52
2022-10-09T00:33:22.423Z,12.46
2022-10-09T00:35:49.318Z,12.34
2022-10-09T00:38:16.599Z,12.40
2022-10-09T00:40:43.479Z,12.36
2022-10-09T00:43:19.664Z,12.19
2022-10-09T00:45:54.577Z,12.26
2022-10-09T00:48:21.821Z,12.33
2022-10-09T00:50:49.949Z,12.19
2022-10-09T00:53:18.592Z,12.15
2022-10-09T00:55:45.834Z,12.16
2022-10-09T00:58:13.481Z,12.23
2022-10-09T01:00:40.718Z,12.29
2022-10-09T01:03:07.628Z,12.22
2022-10-09T01:06:11.640Z,12.18
2022-10-09T01:09:03.380Z,12.22
2022-10-09T01:11:54.780Z,12.13
2022-10-09T01:14:42.380Z,12.24
2022-10-09T01:17:24.917Z,12.30
2022-10-09T01:20:10.210Z,12.28
2022-10-09T01:23:14.370Z,12.21
2022-10-09T01:26:15.760Z,12.24
2022-10-09T01:28:45.436Z,12.10
2022-10-09T01:31:13.053Z,12.06
2022-10-09T01:33:40.007Z,12.10
2022-10-09T01:36:07.711Z,12.17
2022-10-09T01:38:34.950Z,12.22
2022-10-09T01:41:03.460Z,12.25
2022-10-09T01:43:30.101Z,12.25
2022-10-09T01:46:27.131Z,12.24
2022-10-09T01:49:39.747Z,12.28
2022-10-09T01:52:32.071Z,12.26
2022-10-09T01:55:25.171Z,12.19
2022-10-09T01:58:07.680Z,12.29
2022-10-09T02:00:40.757Z,12.23
2022-10-09T02:03:10.664Z,12.23
2022-10-09T02:05:38.720Z,12.28
2022-10-09T02:08:05.529Z,12.29
2022-10-09T02:10:32.880Z,12.29
2022-10-09T02:13:00.570Z,12.21
2022-10-09T02:15:32.219Z,12.16
2022-10-09T02:18:03.219Z,12.13
2022-10-09T02:20:35.699Z,12.04
2022-10-09T02:23:04.835Z,11.96
2022-10-09T02:25:31.720Z,11.92
2022-10-09T02:27:58.649Z,11.91
2022-10-09T02:30:25.666Z,11.85
2022-10-09T02:32:53.617Z,11.81
2022-10-09T02:35:21.001Z,11.74
2022-10-09T02:37:49.259Z,11.81
2022-10-09T02:40:16.174Z,11.61
2022-10-09T02:42:42.867Z,11.68
2022-10-09T02:45:10.039Z,11.80
2022-10-09T02:47:36.729Z,11.83
2022-10-09T02:50:03.578Z,11.85
2022-10-09T02:52:30.255Z,11.75
2022-10-09T02:54:56.927Z,11.77
2022-10-09T02:57:23.680Z,11.83
2022-10-09T02:59:50.377Z,11.79
2022-10-09T03:02:17.213Z,11.85
2022-10-09T03:04:44.060Z,11.72
2022-10-09T03:07:11.370Z,11.77
2022-10-09T03:09:38.090Z,11.73
2022-10-09T03:12:05.153Z,11.76
2022-10-09T03:14:31.800Z,11.75
2022-10-09T03:16:58.505Z,11.73
2022-10-09T03:19:25.236Z,11.72
2022-10-09T03:21:51.970Z,11.68
2022-10-09T03:24:18.640Z,11.68
2022-10-09T03:26:45.282Z,11.69
2022-10-09T03:29:11.949Z,11.69
2022-10-09T03:31:52.032Z,11.66
2022-10-09T03:34:19.370Z,11.69
2022-10-09T03:36:46.209Z,11.63
2022-10-09T03:39:12.879Z,11.53
2022-10-09T03:41:39.557Z,11.51
2022-10-09T03:44:06.380Z,11.60
2022-10-09T03:46:33.172Z,11.66
2022-10-09T03:48:59.892Z,11.60
2022-10-09T03:51:26.771Z,11.56
2022-10-09T03:53:53.420Z,11.60
2022-10-09T03:56:20.178Z,11.64
2022-10-09T03:58:46.860Z,11.65
2022-10-09T04:01:13.683Z,11.64
2022-10-09T04:03:40.355Z,11.59
2022-10-09T04:06:07.170Z,11.54
2022-10-09T04:08:35.086Z,11.67
2022-10-09T04:11:01.790Z,11.63
2022-10-09T04:13:28.541Z,11.58
2022-10-09T04:15:56.294Z,11.49
2022-10-09T04:18:24.542Z,11.51
2022-10-09T04:20:52.376Z,11.56
2022-10-09T04:23:20.088Z,11.56
2022-10-09T04:25:46.766Z,11.43
2022-10-09T04:28:13.490Z,11.49
2022-10-09T04:30:40.045Z,11.49
2022-10-09T04:33:11.820Z,11.48
2022-10-09T04:35:43.663Z,11.48
2022-10-09T04:38:10.520Z,11.56
2022-10-09T04:40:37.191Z,11.61
2022-10-09T04:43:04.157Z,11.54
2022-10-09T04:45:30.784Z,11.40
2022-10-09T04:47:57.377Z,11.40
2022-10-09T04:50:24.182Z,11.44
2022-10-09T04:52:51.219Z,11.44
2022-10-09T04:55:18.137Z,11.43
2022-10-09T04:57:44.755Z,11.37
2022-10-09T05:00:12.153Z,11.35
2022-10-09T05:02:38.872Z,11.33
2022-10-09T05:05:05.773Z,11.24
2022-10-09T05:07:32.398Z,11.27
2022-10-09T05:09:58.916Z,11.34
2022-10-09T05:12:25.514Z,11.37
2022-10-09T05:14:52.073Z,11.35
2022-10-09T05:17:23.033Z,11.39
2022-10-09T05:19:50.205Z,11.36
2022-10-09T05:22:16.924Z,11.34
2022-10-09T05:24:43.488Z,11.27
2022-10-09T05:27:10.062Z,11.33
2022-10-09T05:29:36.676Z,11.34
2022-10-09T05:32:03.411Z,11.31
2022-10-09T05:34:30.040Z,11.28
2022-10-09T05:36:56.624Z,11.17
2022-10-09T05:39:23.405Z,11.10
2022-10-09T05:41:49.989Z,11.23
2022-10-09T05:44:16.550Z,11.25
2022-10-09T05:46:43.092Z,11.23
2022-10-09T05:49:09.960Z,11.15
2022-10-09T05:51:38.780Z,11.17
2022-10-09T05:54:06.409Z,11.27
2022-10-09T05:56:35.561Z,11.30
2022-10-09T05:59:07.369Z,11.32
2022-10-09T06:01:39.571Z,11.27
2022-10-09T06:04:09.453Z,11.37
2022-10-09T06:06:37.792Z,11.45
2022-10-09T06:09:05.716Z,11.38
2022-10-09T06:11:34.640Z,11.40
2022-10-09T06:14:04.568Z,11.43
2022-10-09T06:16:37.867Z,11.50
2022-10-09T06:19:05.221Z,11.57
2022-10-09T06:21:33.124Z,11.54
2022-10-09T06:24:01.190Z,11.58
2022-10-09T06:26:29.513Z,11.60
2022-10-09T06:29:00.927Z,11.67
2022-10-09T06:31:30.339Z,11.74
2022-10-09T06:33:59.101Z,11.73
2022-10-09T06:36:30.551Z,11.75
2022-10-09T06:39:02.016Z,11.68
2022-10-09T06:41:29.337Z,11.77
2022-10-09T06:43:58.001Z,11.66
2022-10-09T06:46:27.017Z,11.62
2022-10-09T06:48:53.696Z,11.69
2022-10-09T06:51:22.162Z,11.85
2022-10-09T06:53:54.032Z,11.81
2022-10-09T06:56:23.481Z,11.96
2022-10-09T06:58:50.721Z,12.14
2022-10-09T07:01:31.003Z,12.19
2022-10-09T07:04:11.240Z,12.16
2022-10-09T07:06:40.058Z,12.29
2022-10-09T07:09:08.681Z,12.27
2022-10-09T07:11:40.260Z,12.45
2022-10-09T07:14:08.610Z,12.56
2022-10-09T07:16:37.441Z,12.60
2022-10-09T07:19:07.658Z,12.99
2022-10-09T07:21:35.671Z,12.89
2022-10-09T07:24:03.680Z,13.18
2022-10-09T07:26:32.033Z,13.50
2022-10-09T07:28:59.021Z,13.68
2022-10-09T07:31:26.076Z,13.56
2022-10-09T07:33:55.063Z,13.69
2022-10-09T07:36:21.859Z,13.55
2022-10-09T07:38:58.436Z,14.08
2022-10-09T07:41:26.698Z,14.03
2022-10-09T07:43:53.459Z,14.31
2022-10-09T07:46:23.829Z,14.55
2022-10-09T07:48:51.244Z,15.15
2022-10-09T07:51:25.947Z,15.36
2022-10-09T07:53:53.330Z,15.24
2022-10-09T07:56:22.184Z,15.28
2022-10-09T07:59:00.510Z,15.31
2022-10-09T08:01:28.303Z,15.38
2022-10-09T08:03:55.597Z,14.60
2022-10-09T08:06:22.691Z,14.41
2022-10-09T08:08:50.813Z,14.46
2022-10-09T08:11:18.758Z,14.23
2022-10-09T08:13:46.561Z,14.21
2022-10-09T08:16:13.714Z,14.44
2022-10-09T08:18:40.672Z,14.84
2022-10-09T08:21:12.429Z,15.14
2022-10-09T08:23:40.713Z,15.13
2022-10-09T08:26:18.738Z,15.38
2022-10-09T08:28:53.176Z,15.38
2022-10-09T08:31:20.769Z,14.90
2022-10-09T08:33:47.563Z,15.54
2022-10-09T08:36:15.463Z,15.72
2022-10-09T08:38:47.569Z,15.78
2022-10-09T08:41:23.959Z,15.43
2022-10-09T08:43:55.132Z,15.71
2022-10-09T08:46:47.273Z,15.85
2022-10-09T08:49:27.027Z,15.97
2022-10-09T08:51:54.732Z,16.62
2022-10-09T08:54:36.782Z,16.45
2022-10-09T08:57:06.812Z,15.97
2022-10-09T08:59:33.545Z,15.77
2022-10-09T09:02:32.046Z,16.64
2022-10-09T09:05:35.973Z,16.68
2022-10-09T09:08:30.113Z,16.96
2022-10-09T09:11:30.984Z,16.80
2022-10-09T09:14:10.753Z,16.40
2022-10-09T09:17:02.520Z,15.84
2022-10-09T09:19:31.920Z,16.62
2022-10-09T09:21:58.953Z,16.99
2022-10-09T09:24:48.088Z,17.23
2022-10-09T09:27:19.314Z,16.49
2022-10-09T09:29:55.013Z,16.54
2022-10-09T09:32:24.705Z,16.85
2022-10-09T09:34:53.293Z,17.47
2022-10-09T09:37:20.009Z,17.84
2022-10-09T09:42:33.383Z,17.85
2022-10-09T09:45:04.127Z,17.59
2022-10-09T09:47:35.214Z,17.85
2022-10-09T09:50:04.097Z,18.25
2022-10-09T09:52:36.117Z,17.36
2022-10-09T09:55:02.967Z,17.97
2022-10-09T09:57:33.443Z,18.15
2022-10-09T10:00:10.815Z,17.68
2022-10-09T10:02:37.451Z,17.71
2022-10-09T10:05:22.084Z,17.60
2022-10-09T10:07:50.351Z,17.76
2022-10-09T10:10:25.719Z,17.96
2022-10-09T10:12:53.093Z,17.97
2022-10-09T10:15:30.968Z,18.92
2022-10-09T10:18:07.533Z,18.69
2022-10-09T10:20:54.079Z,18.69
2022-10-09T10:23:50.162Z,18.61
2022-10-09T10:26:38.979Z,18.70
2022-10-09T10:29:05.558Z,18.63
2022-10-09T10:32:09.448Z,18.53
2022-10-09T10:34:43.409Z,18.42
2022-10-09T10:37:13.273Z,18.11
2022-10-09T10:40:07.872Z,19.00
2022-10-09T10:42:58.665Z,18.57
2022-10-09T10:45:44.287Z,18.37
2022-10-09T10:48:19.033Z,18.67
2022-10-09T10:51:10.117Z,19.00
2022-10-09T10:54:17.823Z,18.30
2022-10-09T10:56:56.387Z,18.74
2022-10-09T10:59:43.102Z,18.69
2022-10-09T11:02:44.236Z,18.68
2022-10-09T11:05:22.275Z,18.53
2022-10-09T11:08:00.183Z,18.82
2022-10-09T11:10:45.842Z,19.13
2022-10-09T11:13:20.727Z,18.48
2022-10-09T11:16:23.499Z,19.25
2022-10-09T11:19:08.279Z,18.79
2022-10-09T11:21:57.836Z,18.58
2022-10-09T11:24:53.002Z,19.07
2022-10-09T11:27:22.482Z,19.29
2022-10-09T11:29:53.570Z,19.05
2022-10-09T11:32:35.035Z,18.97
2022-10-09T11:35:43.126Z,18.29
2022-10-09T11:38:25.847Z,19.26
2022-10-09T11:40:53.755Z,18.97
2022-10-09T11:43:26.461Z,18.88
2022-10-09T11:46:19.396Z,18.74
2022-10-09T11:48:55.016Z,19.02
2022-10-09T11:51:49.038Z,19.11
2022-10-09T11:54:18.166Z,18.29
2022-10-09T11:56:56.619Z,18.40
2022-10-09T11:59:28.929Z,18.91
2022-10-09T12:01:56.614Z,18.75
2022-10-09T12:04:53.458Z,18.67
2022-10-09T12:10:33.666Z,18.59
2022-10-09T12:13:03.829Z,18.53
2022-10-09T12:15:40.979Z,18.80
2022-10-09T12:18:38.517Z,18.80
2022-10-09T12:21:07.831Z,18.36
2022-10-09T12:23:38.133Z,18.41
2022-10-09T12:26:05.085Z,18.61
2022-10-09T12:28:50.265Z,18.54
2022-10-09T12:31:32.583Z,18.60
2022-10-09T12:34:06.536Z,18.83
2022-10-09T12:36:34.244Z,19.18
2022-10-09T12:39:13.444Z,18.76
2022-10-09T12:41:41.585Z,18.97
2022-10-09T12:44:19.078Z,19.71
2022-10-09T12:46:45.759Z,20.05
2022-10-09T12:49:20.603Z,19.87
2022-10-09T12:51:56.436Z,19.75
2022-10-09T12:54:25.305Z,20.18
2022-10-09T12:56:53.186Z,19.58
2022-10-09T12:59:20.862Z,19.45
2022-10-09T13:01:48.222Z,19.57
2022-10-09T13:04:26.303Z,19.33
2022-10-09T13:06:53.580Z,19.50
2022-10-09T13:09:48.341Z,19.87
2022-10-09T13:12:23.679Z,20.32
2022-10-09T13:14:55.610Z,19.34
2022-10-09T13:17:40.043Z,19.47
2022-10-09T13:20:12.563Z,20.06
2022-10-09T13:22:39.894Z,20.08
2022-10-09T13:25:07.120Z,19.63
2022-10-09T13:27:35.504Z,19.36
2022-10-09T13:30:02.329Z,19.33
2022-10-09T13:32:29.134Z,18.98
2022-10-09T13:34:58.079Z,19.30
2022-10-09T13:37:26.430Z,19.14
2022-10-09T13:39:54.897Z,19.32
2022-10-09T13:42:22.375Z,19.54
2022-10-09T13:44:49.066Z,19.76
2022-10-09T13:47:18.572Z,19.61
2022-10-09T13:49:47.469Z,19.25
2022-10-09T13:52:14.162Z,19.38
2022-10-09T13:54:40.949Z,19.33
2022-10-09T13:57:07.750Z,19.69
2022-10-09T13:59:34.526Z,19.46
2022-10-09T14:02:01.327Z,19.43
2022-10-09T14:04:28.779Z,19.26
2022-10-09T14:06:55.536Z,19.05
2022-10-09T14:09:22.806Z,19.17
2022-10-09T14:11:49.551Z,19.23
2022-10-09T14:14:16.370Z,19.07
2022-10-09T14:16:43.232Z,19.13
2022-10-09T14:19:10.164Z,19.37
2022-10-09T14:21:36.869Z,19.38
2022-10-09T14:24:03.878Z,19.31
2022-10-09T14:26:31.468Z,18.97
2022-10-09T14:29:02.913Z,18.84
2022-10-09T14:31:30.070Z,18.53
2022-10-09T14:33:59.651Z,18.22
2022-10-09T14:36:26.723Z,18.44
2022-10-09T14:38:53.872Z,18.38
2022-10-09T14:41:21.129Z,18.40
2022-10-09T14:43:49.011Z,18.33
2022-10-09T14:46:17.509Z,18.29
2022-10-09T14:48:45.561Z,18.12
2022-10-09T14:51:17.549Z,18.31
2022-10-09T14:53:44.757Z,18.27
2022-10-09T14:56:14.908Z,17.95
2022-10-09T14:58:42.337Z,17.75
2022-10-09T15:01:15.211Z,17.67
2022-10-09T15:03:42.097Z,17.92
2022-10-09T15:06:10.670Z,17.75
2022-10-09T15:08:40.549Z,17.96
2022-10-09T15:11:07.817Z,17.79
2022-10-09T15:13:35.649Z,17.69
2022-10-09T15:16:07.808Z,17.53
2022-10-09T15:18:34.601Z,17.58
2022-10-09T15:21:01.891Z,17.50
2022-10-09T15:23:29.193Z,17.38
2022-10-09T15:25:57.792Z,17.05
2022-10-09T15:28:25.008Z,17.12
2022-10-09T15:30:54.537Z,17.11
2022-10-09T15:33:25.370Z,17.05
2022-10-09T15:35:52.930Z,17.12
2022-10-09T15:38:21.930Z,16.94
2022-10-09T15:40:51.251Z,16.88
2022-10-09T15:43:19.768Z,16.77
2022-10-09T15:45:47.708Z,16.82
2022-10-09T15:48:19.729Z,16.78
2022-10-09T15:50:50.554Z,16.56
2022-10-09T15:53:19.285Z,16.42
2022-10-09T15:55:47.661Z,16.36
2022-10-09T15:58:15.411Z,16.06
2022-10-09T16:00:44.098Z,16.19
2022-10-09T16:03:11.359Z,16.13
2022-10-09T16:05:39.455Z,16.09
2022-10-09T16:08:07.014Z,15.97
2022-10-09T16:10:33.749Z,15.78
2022-10-09T16:13:01.067Z,15.83
2022-10-09T16:15:27.794Z,15.79
2022-10-09T16:17:54.479Z,15.59
2022-10-09T16:20:21.187Z,15.60
2022-10-09T16:22:48.152Z,15.35
2022-10-09T16:25:15.163Z,15.20
2022-10-09T16:27:41.821Z,15.08
2022-10-09T16:30:12.063Z,15.09
2022-10-09T16:32:38.917Z,14.97
2022-10-09T16:35:05.958Z,14.95
2022-10-09T16:37:32.729Z,14.93
2022-10-09T16:39:59.717Z,14.80
2022-10-09T16:42:26.340Z,14.77
2022-10-09T16:44:53.121Z,14.55
2022-10-09T16:47:19.791Z,14.33
2022-10-09T16:49:46.506Z,14.40
2022-10-09T16:52:13.170Z,14.33
2022-10-09T16:54:44.116Z,14.20
2022-10-09T16:57:10.872Z,14.05
2022-10-09T16:59:37.998Z,14.03
2022-10-09T17:02:04.765Z,13.99
2022-10-09T17:04:31.589Z,13.84
2022-10-09T17:06:58.263Z,14.05
2022-10-09T17:09:25.011Z,14.08
2022-10-09T17:11:51.699Z,14.07
2022-10-09T17:14:19.384Z,14.01
2022-10-09T17:16:46.267Z,13.97
2022-10-09T17:19:13.127Z,13.78
2022-10-09T17:21:39.759Z,13.65
2022-10-09T17:24:07.756Z,13.67
2022-10-09T17:26:35.225Z,13.56
2022-10-09T17:29:02.711Z,13.52
2022-10-09T17:31:30.122Z,13.60
2022-10-09T17:33:58.763Z,13.58
2022-10-09T17:36:27.364Z,13.50
2022-10-09T17:38:54.095Z,13.42
2022-10-09T17:41:24.087Z,13.37
2022-10-09T17:43:51.600Z,13.33
2022-10-09T17:46:18.795Z,13.22
2022-10-09T17:48:50.340Z,13.20
2022-10-09T17:51:22.978Z,13.17
2022-10-09T17:53:49.671Z,13.08
2022-10-09T17:56:16.715Z,13.07
2022-10-09T17:58:44.654Z,13.02
2022-10-09T18:01:11.928Z,12.94
2022-10-09T18:03:39.029Z,13.00
2022-10-09T18:06:07.837Z,12.90
2022-10-09T18:08:35.138Z,12.96
2022-10-09T18:11:07.668Z,12.95
2022-10-09T18:13:38.138Z,12.89
2022-10-09T18:16:06.915Z,12.84
2022-10-09T18:18:34.099Z,12.79
2022-10-09T18:21:09.098Z,12.72
2022-10-09T18:23:36.393Z,12.64
2022-10-09T18:26:11.075Z,12.58
2022-10-09T18:28:38.429Z,12.59
2022-10-09T18:31:10.689Z,12.56
2022-10-09T18:33:37.887Z,12.60
2022-10-09T18:36:07.675Z,12.59
2022-10-09T18:38:35.018Z,12.49
2022-10-09T18:41:02.329Z,12.58
2022-10-09T18:43:29.424Z,12.44
2022-10-09T18:45:56.411Z,12.37
2022-10-09T18:48:23.415Z,12.35
2022-10-09T18:50:50.150Z,12.36
2022-10-09T18:53:16.791Z,12.37
2022-10-09T18:55:44.199Z,12.32
2022-10-09T18:58:12.521Z,12.32
2022-10-09T19:00:39.608Z,12.17
2022-10-09T19:03:06.420Z,12.13
2022-10-09T19:05:33.218Z,12.14
2022-10-09T19:07:59.876Z,12.11
2022-10-09T19:10:26.545Z,12.06
2022-10-09T19:12:54.436Z,11.91
2022-10-09T19:15:21.387Z,12.03
2022-10-09T19:17:48.331Z,12.00
2022-10-09T19:20:15.126Z,11.88
2022-10-09T19:22:41.732Z,11.94
2022-10-09T19:25:09.194Z,11.89
2022-10-09T19:27:35.827Z,11.78
2022-10-09T19:30:02.693Z,11.69
2022-10-09T19:32:29.345Z,11.61
2022-10-09T19:34:55.929Z,11.61
2022-10-09T19:37:26.065Z,11.79
2022-10-09T19:39:56.214Z,11.79
2022-10-09T19:42:22.953Z,11.71
2022-10-09T19:44:49.568Z,11.59
2022-10-09T19:47:18.237Z,11.60
2022-10-09T19:49:44.853Z,11.59
2022-10-09T19:52:11.486Z,11.54
2022-10-09T19:54:40.075Z,11.52
2022-10-09T19:57:06.788Z,11.59
2022-10-09T19:59:33.366Z,11.49
2022-10-09T20:02:00.207Z,11.41
2022-10-09T20:04:26.859Z,11.42
2022-10-09T20:06:53.466Z,11.47
2022-10-09T20:09:20.930Z,11.44
2022-10-09T20:11:47.706Z,11.47
2022-10-09T20:14:14.321Z,11.40
2022-10-09T20:16:41.028Z,11.27
2022-10-09T20:19:07.732Z,11.27
2022-10-09T20:21:34.864Z,11.14
2022-10-09T20:24:01.571Z,11.13
2022-10-09T20:26:29.821Z,11.18
2022-10-09T20:28:56.454Z,11.02
2022-10-09T20:31:25.612Z,11.12
2022-10-09T20:33:53.374Z,10.99
2022-10-09T20:36:48.257Z,11.02
2022-10-09T20:39:15.778Z,11.02
2022-10-09T20:41:43.367Z,11.09
2022-10-09T20:44:11.452Z,11.07
2022-10-09T20:46:39.005Z,11.12
2022-10-09T20:49:07.802Z,11.08
2022-10-09T20:51:35.871Z,10.95
2022-10-09T20:54:03.112Z,10.91
2022-10-09T20:56:32.009Z,11.00
2022-10-09T20:59:00.010Z,10.96
2022-10-09T21:01:28.405Z,10.93
2022-10-09T21:03:56.801Z,10.93
2022-10-09T21:06:23.569Z,10.84
2022-10-09T21:08:50.489Z,10.84
2022-10-09T21:11:18.474Z,10.91
2022-10-09T21:13:45.638Z,10.87
2022-10-09T21:16:15.515Z,10.89
2022-10-09T21:18:42.118Z,10.88
2022-10-09T21:21:11.455Z,10.72
2022-10-09T21:23:38.356Z,10.59
2022-10-09T21:26:10.054Z,10.57
2022-10-09T21:28:36.707Z,10.47
2022-10-09T21:31:10.605Z,10.52
2022-10-09T21:33:37.610Z,10.54
2022-10-09T21:36:12.652Z,10.61
2022-10-09T21:38:39.245Z,10.60
2022-10-09T21:41:05.814Z,10.62
2022-10-09T21:43:32.597Z,10.65
2022-10-09T21:45:59.205Z,10.64
2022-10-09T21:48:25.794Z,10.63
2022-10-09T21:50:52.387Z,10.73
2022-10-09T21:53:18.945Z,10.80
2022-10-09T21:55:45.706Z,10.76
2022-10-09T21:58:12.297Z,10.71
2022-10-09T22:00:38.904Z,10.63
2022-10-09T22:03:05.806Z,10.49
2022-10-09T22:05:32.343Z,10.62
2022-10-09T22:07:58.932Z,10.54
2022-10-09T22:10:25.546Z,10.58
2022-10-09T22:12:52.491Z,10.68
2022-10-09T22:15:19.369Z,10.58
2022-10-09T22:17:45.904Z,10.33
2022-10-09T22:20:13.239Z,10.41
2022-10-09T22:22:39.909Z,10.36
2022-10-09T22:25:07.151Z,10.25
2022-10-09T22:27:33.763Z,10.19
2022-10-09T22:30:00.401Z,10.29
2022-10-09T22:32:26.966Z,10.34
2022-10-09T22:34:53.640Z,10.36
2022-10-09T22:37:20.261Z,10.33
2022-10-09T22:39:46.923Z,10.32
2022-10-09T22:42:13.505Z,10.29
2022-10-09T22:44:40.137Z,10.35
2022-10-09T22:47:06.749Z,10.33
2022-10-09T22:49:33.417Z,10.21
2022-10-09T22:51:59.989Z,10.17
2022-10-09T22:54:26.597Z,10.20
2022-10-09T22:56:53.227Z,10.22
2022-10-09T22:59:19.886Z,10.28
2022-10-09T23:01:50.112Z,10.26
2022-10-09T23:04:18.034Z,10.18
2022-10-09T23:06:45.489Z,10.12
2022-10-09T23:09:14.584Z,10.05
2022-10-09T23:11:42.079Z,9.93
2022-10-09T23:14:10.717Z,9.91
2022-10-09T23:16:37.539Z,9.93
2022-10-09T23:19:07.051Z,10.05
2022-10-09T23:21:35.651Z,10.14
2022-10-09T23:24:02.452Z,9.98
2022-10-09T23:26:31.817Z,9.92
2022-10-09T23:29:07.861Z,9.92
2022-10-09T23:31:35.398Z,10.00
2022-10-09T23:34:03.881Z,9.98
2022-10-09T23:36:30.790Z,9.90
2022-10-09T23:38:58.329Z,9.81
2022-10-09T23:41:27.474Z,9.94
2022-10-09T23:43:54.616Z,9.99
2022-10-09T23:46:24.097Z,9.99
2022-10-09T23:48:51.899Z,9.83
2022-10-09T23:51:19.950Z,9.74
2022-10-09T23:53:47.050Z,9.71
2022-10-09T23:56:19.749Z,9.83
2022-10-09T23:58:46.960Z,9.89
